sensor_id;sensor_type;location;lat;lon;timestamp;P1;durP1;ratioP1;P2;durP2;ratioP2
60026;SDS011;45891;53.006;6.512;2023-08-20T00:01:07;11.63;;;3.08;;
60026;SDS011;45891;53.006;6.512;2023-08-20T00:03:37;12.10;;;3.65;;
60026;SDS011;45891;53.006;6.512;2023-08-20T00:06:05;12.02;;;3.20;;
60026;SDS011;45891;53.006;6.512;2023-08-20T00:08:32;13.48;;;3.40;;
60026;SDS011;45891;53.006;6.512;2023-08-20T00:10:58;11.70;;;3.10;;
60026;SDS011;45891;53.006;6.512;2023-08-20T00:13:24;15.50;;;3.42;;
60026;SDS011;45891;53.006;6.512;2023-08-20T00:15:50;11.45;;;3.50;;
60026;SDS011;45891;53.006;6.512;2023-08-20T00:18:17;15.23;;;3.90;;
60026;SDS011;45891;53.006;6.512;2023-08-20T00:20:43;16.27;;;4.00;;
60026;SDS011;45891;53.006;6.512;2023-08-20T00:23:11;12.80;;;3.83;;
60026;SDS011;45891;53.006;6.512;2023-08-20T00:25:37;17.50;;;4.40;;
60026;SDS011;45891;53.006;6.512;2023-08-20T00:28:04;14.70;;;3.65;;
60026;SDS011;45891;53.006;6.512;2023-08-20T00:30:30;14.57;;;3.90;;
60026;SDS011;45891;53.006;6.512;2023-08-20T00:32:56;13.27;;;3.47;;
60026;SDS011;45891;53.006;6.512;2023-08-20T00:35:22;17.33;;;4.38;;
60026;SDS011;45891;53.006;6.512;2023-08-20T00:37:48;12.45;;;4.25;;
60026;SDS011;45891;53.006;6.512;2023-08-20T00:40:14;12.63;;;3.90;;
60026;SDS011;45891;53.006;6.512;2023-08-20T00:42:40;13.10;;;3.55;;
60026;SDS011;45891;53.006;6.512;2023-08-20T00:45:06;13.98;;;4.28;;
60026;SDS011;45891;53.006;6.512;2023-08-20T00:47:33;14.20;;;4.38;;
60026;SDS011;45891;53.006;6.512;2023-08-20T00:50:01;15.98;;;4.45;;
60026;SDS011;45891;53.006;6.512;2023-08-20T00:52:31;22.70;;;5.63;;
60026;SDS011;45891;53.006;6.512;2023-08-20T00:54:57;22.25;;;4.85;;
60026;SDS011;45891;53.006;6.512;2023-08-20T00:57:23;14.63;;;5.00;;
60026;SDS011;45891;53.006;6.512;2023-08-20T00:59:50;19.25;;;5.40;;
60026;SDS011;45891;53.006;6.512;2023-08-20T01:02:17;15.80;;;4.88;;
60026;SDS011;45891;53.006;6.512;2023-08-20T01:04:43;15.93;;;4.45;;
60026;SDS011;45891;53.006;6.512;2023-08-20T01:12:39;16.45;;;5.05;;
60026;SDS011;45891;53.006;6.512;2023-08-20T01:15:06;11.98;;;4.93;;
60026;SDS011;45891;53.006;6.512;2023-08-20T01:17:42;18.15;;;5.50;;
60026;SDS011;45891;53.006;6.512;2023-08-20T01:20:09;19.38;;;5.40;;
60026;SDS011;45891;53.006;6.512;2023-08-20T01:25:44;17.02;;;5.85;;
60026;SDS011;45891;53.006;6.512;2023-08-20T01:28:37;17.50;;;6.20;;
60026;SDS011;45891;53.006;6.512;2023-08-20T01:31:05;20.48;;;6.82;;
60026;SDS011;45891;53.006;6.512;2023-08-20T01:33:33;18.80;;;6.22;;
60026;SDS011;45891;53.006;6.512;2023-08-20T01:35:59;17.48;;;7.25;;
60026;SDS011;45891;53.006;6.512;2023-08-20T01:38:25;16.52;;;6.78;;
60026;SDS011;45891;53.006;6.512;2023-08-20T01:40:51;17.05;;;7.50;;
60026;SDS011;45891;53.006;6.512;2023-08-20T01:43:18;19.70;;;7.90;;
60026;SDS011;45891;53.006;6.512;2023-08-20T01:45:44;18.88;;;7.93;;
60026;SDS011;45891;53.006;6.512;2023-08-20T01:48:10;22.35;;;7.75;;
60026;SDS011;45891;53.006;6.512;2023-08-20T01:50:36;19.60;;;7.28;;
60026;SDS011;45891;53.006;6.512;2023-08-20T01:53:02;20.33;;;7.13;;
60026;SDS011;45891;53.006;6.512;2023-08-20T01:55:28;15.98;;;5.88;;
60026;SDS011;45891;53.006;6.512;2023-08-20T01:57:55;14.00;;;5.40;;
60026;SDS011;45891;53.006;6.512;2023-08-20T02:00:21;19.88;;;7.50;;
60026;SDS011;45891;53.006;6.512;2023-08-20T02:02:47;18.02;;;7.05;;
60026;SDS011;45891;53.006;6.512;2023-08-20T02:05:13;16.23;;;6.78;;
60026;SDS011;45891;53.006;6.512;2023-08-20T02:07:39;15.90;;;6.55;;
60026;SDS011;45891;53.006;6.512;2023-08-20T02:10:05;17.75;;;6.97;;
60026;SDS011;45891;53.006;6.512;2023-08-20T02:12:32;16.23;;;7.70;;
60026;SDS011;45891;53.006;6.512;2023-08-20T02:14:58;18.70;;;7.85;;
60026;SDS011;45891;53.006;6.512;2023-08-20T02:17:24;23.67;;;8.82;;
60026;SDS011;45891;53.006;6.512;2023-08-20T02:19:50;25.02;;;9.07;;
60026;SDS011;45891;53.006;6.512;2023-08-20T02:22:16;20.30;;;9.45;;
60026;SDS011;45891;53.006;6.512;2023-08-20T02:24:44;18.88;;;8.73;;
60026;SDS011;45891;53.006;6.512;2023-08-20T02:27:10;19.80;;;8.80;;
60026;SDS011;45891;53.006;6.512;2023-08-20T02:29:36;23.10;;;8.93;;
60026;SDS011;45891;53.006;6.512;2023-08-20T02:32:03;16.10;;;8.23;;
60026;SDS011;45891;53.006;6.512;2023-08-20T02:34:29;18.38;;;7.38;;
60026;SDS011;45891;53.006;6.512;2023-08-20T02:36:55;21.00;;;8.55;;
60026;SDS011;45891;53.006;6.512;2023-08-20T02:39:21;16.75;;;8.18;;
60026;SDS011;45891;53.006;6.512;2023-08-20T02:41:47;20.35;;;8.10;;
60026;SDS011;45891;53.006;6.512;2023-08-20T02:44:13;15.65;;;7.80;;
60026;SDS011;45891;53.006;6.512;2023-08-20T02:46:39;18.38;;;8.18;;
60026;SDS011;45891;53.006;6.512;2023-08-20T02:49:06;14.57;;;7.03;;
60026;SDS011;45891;53.006;6.512;2023-08-20T02:51:32;16.55;;;6.90;;
60026;SDS011;45891;53.006;6.512;2023-08-20T02:53:58;20.63;;;7.85;;
60026;SDS011;45891;53.006;6.512;2023-08-20T02:56:24;26.48;;;7.80;;
60026;SDS011;45891;53.006;6.512;2023-08-20T02:58:50;18.80;;;7.25;;
60026;SDS011;45891;53.006;6.512;2023-08-20T03:01:23;16.67;;;7.93;;
60026;SDS011;45891;53.006;6.512;2023-08-20T03:03:50;16.90;;;7.10;;
60026;SDS011;45891;53.006;6.512;2023-08-20T03:06:17;16.00;;;8.20;;
60026;SDS011;45891;53.006;6.512;2023-08-20T03:08:43;20.85;;;8.20;;
60026;SDS011;45891;53.006;6.512;2023-08-20T03:11:09;18.45;;;7.18;;
60026;SDS011;45891;53.006;6.512;2023-08-20T03:13:35;19.02;;;7.78;;
60026;SDS011;45891;53.006;6.512;2023-08-20T03:16:01;18.48;;;8.25;;
60026;SDS011;45891;53.006;6.512;2023-08-20T03:18:28;19.02;;;7.38;;
60026;SDS011;45891;53.006;6.512;2023-08-20T03:20:55;19.98;;;8.38;;
60026;SDS011;45891;53.006;6.512;2023-08-20T03:23:22;19.60;;;8.02;;
60026;SDS011;45891;53.006;6.512;2023-08-20T03:25:49;14.13;;;6.70;;
60026;SDS011;45891;53.006;6.512;2023-08-20T03:28:15;17.88;;;8.23;;
60026;SDS011;45891;53.006;6.512;2023-08-20T03:30:43;14.77;;;7.50;;
60026;SDS011;45891;53.006;6.512;2023-08-20T03:33:09;19.27;;;8.32;;
60026;SDS011;45891;53.006;6.512;2023-08-20T03:35:35;14.18;;;7.00;;
60026;SDS011;45891;53.006;6.512;2023-08-20T03:38:02;14.32;;;6.47;;
60026;SDS011;45891;53.006;6.512;2023-08-20T03:40:28;14.13;;;6.80;;
60026;SDS011;45891;53.006;6.512;2023-08-20T03:42:54;17.73;;;7.82;;
60026;SDS011;45891;53.006;6.512;2023-08-20T03:45:20;17.02;;;7.18;;
60026;SDS011;45891;53.006;6.512;2023-08-20T03:47:46;13.65;;;6.22;;
60026;SDS011;45891;53.006;6.512;2023-08-20T03:50:12;17.67;;;7.50;;
60026;SDS011;45891;53.006;6.512;2023-08-20T03:52:38;15.98;;;7.78;;
60026;SDS011;45891;53.006;6.512;2023-08-20T03:55:05;20.20;;;7.95;;
60026;SDS011;45891;53.006;6.512;2023-08-20T03:57:31;19.42;;;7.35;;
60026;SDS011;45891;53.006;6.512;2023-08-20T03:59:57;16.17;;;7.60;;
60026;SDS011;45891;53.006;6.512;2023-08-20T04:02:23;23.67;;;8.23;;
60026;SDS011;45891;53.006;6.512;2023-08-20T04:04:49;21.13;;;8.48;;
60026;SDS011;45891;53.006;6.512;2023-08-20T04:07:17;21.00;;;9.32;;
60026;SDS011;45891;53.006;6.512;2023-08-20T04:09:43;19.20;;;8.63;;
60026;SDS011;45891;53.006;6.512;2023-08-20T04:12:09;20.65;;;8.15;;
60026;SDS011;45891;53.006;6.512;2023-08-20T04:14:35;19.13;;;8.52;;
60026;SDS011;45891;53.006;6.512;2023-08-20T04:17:02;21.90;;;8.75;;
60026;SDS011;45891;53.006;6.512;2023-08-20T04:19:28;20.05;;;8.90;;
60026;SDS011;45891;53.006;6.512;2023-08-20T04:21:54;17.73;;;8.70;;
60026;SDS011;45891;53.006;6.512;2023-08-20T04:24:20;14.80;;;7.95;;
60026;SDS011;45891;53.006;6.512;2023-08-20T04:26:46;17.23;;;9.15;;
60026;SDS011;45891;53.006;6.512;2023-08-20T04:29:12;18.77;;;8.88;;
60026;SDS011;45891;53.006;6.512;2023-08-20T04:31:38;16.10;;;8.57;;
60026;SDS011;45891;53.006;6.512;2023-08-20T04:34:04;18.48;;;9.20;;
60026;SDS011;45891;53.006;6.512;2023-08-20T04:36:30;25.60;;;9.25;;
60026;SDS011;45891;53.006;6.512;2023-08-20T04:38:56;19.00;;;9.27;;
60026;SDS011;45891;53.006;6.512;2023-08-20T04:41:22;19.15;;;9.13;;
60026;SDS011;45891;53.006;6.512;2023-08-20T04:43:48;19.67;;;9.18;;
60026;SDS011;45891;53.006;6.512;2023-08-20T04:46:15;17.13;;;7.95;;
60026;SDS011;45891;53.006;6.512;2023-08-20T04:48:41;18.00;;;8.35;;
60026;SDS011;45891;53.006;6.512;2023-08-20T04:51:07;21.42;;;9.50;;
60026;SDS011;45891;53.006;6.512;2023-08-20T04:53:33;18.42;;;7.97;;
60026;SDS011;45891;53.006;6.512;2023-08-20T04:55:59;18.15;;;8.98;;
60026;SDS011;45891;53.006;6.512;2023-08-20T04:58:25;19.52;;;9.27;;
60026;SDS011;45891;53.006;6.512;2023-08-20T05:00:51;20.45;;;8.88;;
60026;SDS011;45891;53.006;6.512;2023-08-20T05:03:17;16.90;;;9.10;;
60026;SDS011;45891;53.006;6.512;2023-08-20T05:05:47;18.15;;;8.45;;
60026;SDS011;45891;53.006;6.512;2023-08-20T05:08:14;17.75;;;8.43;;
60026;SDS011;45891;53.006;6.512;2023-08-20T05:10:40;19.10;;;8.70;;
60026;SDS011;45891;53.006;6.512;2023-08-20T05:13:07;18.17;;;8.90;;
60026;SDS011;45891;53.006;6.512;2023-08-20T05:15:34;20.67;;;9.05;;
60026;SDS011;45891;53.006;6.512;2023-08-20T05:18:00;19.17;;;9.20;;
60026;SDS011;45891;53.006;6.512;2023-08-20T05:20:26;17.73;;;8.30;;
60026;SDS011;45891;53.006;6.512;2023-08-20T05:22:52;19.58;;;8.88;;
60026;SDS011;45891;53.006;6.512;2023-08-20T05:25:18;18.02;;;8.38;;
60026;SDS011;45891;53.006;6.512;2023-08-20T05:27:44;17.48;;;7.65;;
60026;SDS011;45891;53.006;6.512;2023-08-20T05:30:10;17.20;;;7.70;;
60026;SDS011;45891;53.006;6.512;2023-08-20T05:32:37;18.38;;;6.88;;
60026;SDS011;45891;53.006;6.512;2023-08-20T05:35:03;15.70;;;6.75;;
60026;SDS011;45891;53.006;6.512;2023-08-20T05:37:30;16.35;;;6.80;;
60026;SDS011;45891;53.006;6.512;2023-08-20T05:39:56;14.85;;;7.30;;
60026;SDS011;45891;53.006;6.512;2023-08-20T05:42:22;13.07;;;6.25;;
60026;SDS011;45891;53.006;6.512;2023-08-20T05:44:48;15.05;;;6.28;;
60026;SDS011;45891;53.006;6.512;2023-08-20T05:47:14;16.20;;;6.10;;
60026;SDS011;45891;53.006;6.512;2023-08-20T05:49:40;15.35;;;5.70;;
60026;SDS011;45891;53.006;6.512;2023-08-20T05:52:06;15.55;;;6.35;;
60026;SDS011;45891;53.006;6.512;2023-08-20T05:54:32;15.02;;;5.63;;
60026;SDS011;45891;53.006;6.512;2023-08-20T05:56:58;15.55;;;5.30;;
60026;SDS011;45891;53.006;6.512;2023-08-20T05:59:24;15.55;;;4.97;;
60026;SDS011;45891;53.006;6.512;2023-08-20T06:01:52;13.43;;;5.00;;
60026;SDS011;45891;53.006;6.512;2023-08-20T06:04:18;16.15;;;5.10;;
60026;SDS011;45891;53.006;6.512;2023-08-20T06:06:45;14.60;;;4.93;;
60026;SDS011;45891;53.006;6.512;2023-08-20T06:09:11;14.27;;;4.65;;
60026;SDS011;45891;53.006;6.512;2023-08-20T06:11:37;14.85;;;4.60;;
60026;SDS011;45891;53.006;6.512;2023-08-20T06:14:03;14.93;;;4.55;;
60026;SDS011;45891;53.006;6.512;2023-08-20T06:16:29;12.38;;;4.30;;
60026;SDS011;45891;53.006;6.512;2023-08-20T06:18:57;16.20;;;4.47;;
60026;SDS011;45891;53.006;6.512;2023-08-20T06:21:23;13.23;;;3.42;;
60026;SDS011;45891;53.006;6.512;2023-08-20T06:23:49;14.85;;;4.05;;
60026;SDS011;45891;53.006;6.512;2023-08-20T06:26:15;13.77;;;3.90;;
60026;SDS011;45891;53.006;6.512;2023-08-20T06:28:41;14.52;;;3.45;;
60026;SDS011;45891;53.006;6.512;2023-08-20T06:31:07;16.15;;;3.63;;
60026;SDS011;45891;53.006;6.512;2023-08-20T06:33:34;15.57;;;3.78;;
60026;SDS011;45891;53.006;6.512;2023-08-20T06:36:00;16.02;;;3.78;;
60026;SDS011;45891;53.006;6.512;2023-08-20T06:38:26;14.50;;;3.90;;
60026;SDS011;45891;53.006;6.512;2023-08-20T06:40:52;14.10;;;3.80;;
60026;SDS011;45891;53.006;6.512;2023-08-20T06:43:18;13.40;;;3.33;;
60026;SDS011;45891;53.006;6.512;2023-08-20T06:45:44;13.57;;;3.72;;
60026;SDS011;45891;53.006;6.512;2023-08-20T06:48:11;12.93;;;3.65;;
60026;SDS011;45891;53.006;6.512;2023-08-20T06:50:37;14.00;;;3.85;;
60026;SDS011;45891;53.006;6.512;2023-08-20T06:53:03;15.55;;;3.72;;
60026;SDS011;45891;53.006;6.512;2023-08-20T06:55:30;15.13;;;3.70;;
60026;SDS011;45891;53.006;6.512;2023-08-20T06:57:57;14.23;;;3.42;;
60026;SDS011;45891;53.006;6.512;2023-08-20T07:00:23;13.27;;;3.50;;
60026;SDS011;45891;53.006;6.512;2023-08-20T07:02:49;15.88;;;3.70;;
60026;SDS011;45891;53.006;6.512;2023-08-20T07:05:15;13.90;;;3.70;;
60026;SDS011;45891;53.006;6.512;2023-08-20T07:07:42;11.25;;;3.38;;
60026;SDS011;45891;53.006;6.512;2023-08-20T07:10:08;15.18;;;3.80;;
60026;SDS011;45891;53.006;6.512;2023-08-20T07:12:34;12.57;;;3.25;;
60026;SDS011;45891;53.006;6.512;2023-08-20T07:15:00;13.07;;;3.60;;
60026;SDS011;45891;53.006;6.512;2023-08-20T07:17:27;13.77;;;3.30;;
60026;SDS011;45891;53.006;6.512;2023-08-20T07:19:53;13.70;;;3.00;;
60026;SDS011;45891;53.006;6.512;2023-08-20T07:22:19;15.18;;;3.30;;
60026;SDS011;45891;53.006;6.512;2023-08-20T07:24:45;12.77;;;3.03;;
60026;SDS011;45891;53.006;6.512;2023-08-20T07:27:11;12.93;;;3.15;;
60026;SDS011;45891;53.006;6.512;2023-08-20T07:29:38;13.57;;;3.38;;
60026;SDS011;45891;53.006;6.512;2023-08-20T07:32:04;13.05;;;3.20;;
60026;SDS011;45891;53.006;6.512;2023-08-20T07:34:30;13.73;;;3.05;;
60026;SDS011;45891;53.006;6.512;2023-08-20T07:36:56;10.65;;;2.80;;
60026;SDS011;45891;53.006;6.512;2023-08-20T07:39:22;15.52;;;3.05;;
60026;SDS011;45891;53.006;6.512;2023-08-20T07:41:48;15.07;;;3.13;;
60026;SDS011;45891;53.006;6.512;2023-08-20T07:44:14;13.75;;;2.88;;
60026;SDS011;45891;53.006;6.512;2023-08-20T07:46:41;11.73;;;3.00;;
60026;SDS011;45891;53.006;6.512;2023-08-20T07:49:07;14.80;;;2.90;;
60026;SDS011;45891;53.006;6.512;2023-08-20T07:51:33;11.40;;;2.38;;
60026;SDS011;45891;53.006;6.512;2023-08-20T07:53:59;15.60;;;2.85;;
60026;SDS011;45891;53.006;6.512;2023-08-20T07:56:26;13.57;;;2.50;;
60026;SDS011;45891;53.006;6.512;2023-08-20T07:58:52;12.48;;;2.58;;
60026;SDS011;45891;53.006;6.512;2023-08-20T08:01:18;11.23;;;2.60;;
60026;SDS011;45891;53.006;6.512;2023-08-20T08:03:44;12.15;;;2.80;;
60026;SDS011;45891;53.006;6.512;2023-08-20T08:06:10;14.95;;;2.90;;
60026;SDS011;45891;53.006;6.512;2023-08-20T08:08:37;11.10;;;2.40;;
60026;SDS011;45891;53.006;6.512;2023-08-20T08:11:07;11.63;;;2.63;;
60026;SDS011;45891;53.006;6.512;2023-08-20T08:13:33;15.73;;;2.55;;
60026;SDS011;45891;53.006;6.512;2023-08-20T08:15:59;11.93;;;2.40;;
60026;SDS011;45891;53.006;6.512;2023-08-20T08:18:25;11.40;;;2.05;;
60026;SDS011;45891;53.006;6.512;2023-08-20T08:20:52;13.52;;;2.35;;
60026;SDS011;45891;53.006;6.512;2023-08-20T08:23:18;11.38;;;2.00;;
60026;SDS011;45891;53.006;6.512;2023-08-20T08:25:44;11.65;;;2.58;;
60026;SDS011;45891;53.006;6.512;2023-08-20T08:28:10;13.35;;;2.45;;
60026;SDS011;45891;53.006;6.512;2023-08-20T08:30:37;11.00;;;2.30;;
60026;SDS011;45891;53.006;6.512;2023-08-20T08:33:04;12.95;;;2.10;;
60026;SDS011;45891;53.006;6.512;2023-08-20T08:35:30;11.75;;;2.03;;
60026;SDS011;45891;53.006;6.512;2023-08-20T08:37:56;10.82;;;2.30;;
60026;SDS011;45891;53.006;6.512;2023-08-20T08:40:24;10.70;;;2.10;;
60026;SDS011;45891;53.006;6.512;2023-08-20T08:42:54;13.27;;;2.45;;
60026;SDS011;45891;53.006;6.512;2023-08-20T08:45:21;12.27;;;2.55;;
60026;SDS011;45891;53.006;6.512;2023-08-20T08:47:47;12.88;;;2.30;;
60026;SDS011;45891;53.006;6.512;2023-08-20T08:50:14;14.13;;;2.38;;
60026;SDS011;45891;53.006;6.512;2023-08-20T08:52:41;11.40;;;2.10;;
60026;SDS011;45891;53.006;6.512;2023-08-20T08:55:08;15.75;;;2.30;;
60026;SDS011;45891;53.006;6.512;2023-08-20T08:57:35;13.38;;;2.30;;
60026;SDS011;45891;53.006;6.512;2023-08-20T09:00:02;11.75;;;2.38;;
60026;SDS011;45891;53.006;6.512;2023-08-20T09:02:29;11.00;;;1.90;;
60026;SDS011;45891;53.006;6.512;2023-08-20T09:04:55;10.88;;;1.80;;
60026;SDS011;45891;53.006;6.512;2023-08-20T09:07:22;11.32;;;2.28;;
60026;SDS011;45891;53.006;6.512;2023-08-20T09:09:48;12.88;;;1.95;;
60026;SDS011;45891;53.006;6.512;2023-08-20T09:12:23;10.18;;;1.77;;
60026;SDS011;45891;53.006;6.512;2023-08-20T09:14:50;11.00;;;1.98;;
60026;SDS011;45891;53.006;6.512;2023-08-20T09:17:17;8.95;;;1.67;;
60026;SDS011;45891;53.006;6.512;2023-08-20T09:19:45;9.85;;;1.80;;
60026;SDS011;45891;53.006;6.512;2023-08-20T09:22:12;10.30;;;1.83;;
60026;SDS011;45891;53.006;6.512;2023-08-20T09:24:46;11.70;;;2.00;;
60026;SDS011;45891;53.006;6.512;2023-08-20T09:27:17;10.80;;;1.90;;
60026;SDS011;45891;53.006;6.512;2023-08-20T09:32:18;11.45;;;2.20;;
60026;SDS011;45891;53.006;6.512;2023-08-20T09:34:45;11.10;;;1.80;;
60026;SDS011;45891;53.006;6.512;2023-08-20T09:37:13;10.27;;;2.08;;
60026;SDS011;45891;53.006;6.512;2023-08-20T09:39:40;11.52;;;2.10;;
60026;SDS011;45891;53.006;6.512;2023-08-20T09:42:07;10.95;;;1.77;;
60026;SDS011;45891;53.006;6.512;2023-08-20T09:44:35;10.88;;;2.08;;
60026;SDS011;45891;53.006;6.512;2023-08-20T09:47:07;9.35;;;2.05;;
60026;SDS011;45891;53.006;6.512;2023-08-20T09:49:36;10.07;;;1.90;;
60026;SDS011;45891;53.006;6.512;2023-08-20T09:52:04;10.57;;;2.28;;
60026;SDS011;45891;53.006;6.512;2023-08-20T09:57:29;11.95;;;2.10;;
60026;SDS011;45891;53.006;6.512;2023-08-20T10:00:02;10.73;;;1.77;;
60026;SDS011;45891;53.006;6.512;2023-08-20T10:02:31;9.97;;;1.80;;
60026;SDS011;45891;53.006;6.512;2023-08-20T10:04:59;10.57;;;1.92;;
60026;SDS011;45891;53.006;6.512;2023-08-20T10:07:28;11.95;;;2.30;;
60026;SDS011;45891;53.006;6.512;2023-08-20T10:09:58;11.95;;;2.10;;
60026;SDS011;45891;53.006;6.512;2023-08-20T10:12:26;12.38;;;2.25;;
60026;SDS011;45891;53.006;6.512;2023-08-20T10:14:53;10.43;;;1.70;;
60026;SDS011;45891;53.006;6.512;2023-08-20T10:19:53;10.88;;;1.90;;
60026;SDS011;45891;53.006;6.512;2023-08-20T10:22:19;12.37;;;2.30;;
60026;SDS011;45891;53.006;6.512;2023-08-20T10:24:50;10.93;;;1.77;;
60026;SDS011;45891;53.006;6.512;2023-08-20T10:27:25;11.98;;;2.08;;
60026;SDS011;45891;53.006;6.512;2023-08-20T10:29:59;11.05;;;2.03;;
60026;SDS011;45891;53.006;6.512;2023-08-20T10:32:44;10.52;;;1.90;;
60026;SDS011;45891;53.006;6.512;2023-08-20T10:35:27;11.63;;;1.92;;
60026;SDS011;45891;53.006;6.512;2023-08-20T10:38:01;10.07;;;2.03;;
60026;SDS011;45891;53.006;6.512;2023-08-20T10:43:26;9.80;;;1.80;;
60026;SDS011;45891;53.006;6.512;2023-08-20T10:46:06;9.45;;;1.90;;
60026;SDS011;45891;53.006;6.512;2023-08-20T10:48:53;11.43;;;2.03;;
60026;SDS011;45891;53.006;6.512;2023-08-20T10:51:28;9.27;;;1.80;;
60026;SDS011;45891;53.006;6.512;2023-08-20T10:54:02;10.38;;;1.80;;
60026;SDS011;45891;53.006;6.512;2023-08-20T10:56:40;8.52;;;1.80;;
60026;SDS011;45891;53.006;6.512;2023-08-20T10:59:08;12.20;;;1.88;;
60026;SDS011;45891;53.006;6.512;2023-08-20T11:01:49;10.80;;;1.88;;
60026;SDS011;45891;53.006;6.512;2023-08-20T11:04:17;10.25;;;1.70;;
60026;SDS011;45891;53.006;6.512;2023-08-20T11:06:52;9.35;;;1.83;;
60026;SDS011;45891;53.006;6.512;2023-08-20T11:09:23;8.27;;;1.55;;
60026;SDS011;45891;53.006;6.512;2023-08-20T11:11:51;8.93;;;1.67;;
60026;SDS011;45891;53.006;6.512;2023-08-20T11:14:18;9.95;;;1.70;;
60026;SDS011;45891;53.006;6.512;2023-08-20T11:16:45;10.30;;;1.75;;
60026;SDS011;45891;53.006;6.512;2023-08-20T11:19:13;8.45;;;1.55;;
60026;SDS011;45891;53.006;6.512;2023-08-20T11:21:40;8.40;;;1.50;;
60026;SDS011;45891;53.006;6.512;2023-08-20T11:24:07;10.07;;;1.63;;
60026;SDS011;45891;53.006;6.512;2023-08-20T11:26:35;8.70;;;1.45;;
60026;SDS011;45891;53.006;6.512;2023-08-20T11:29:07;9.73;;;1.63;;
60026;SDS011;45891;53.006;6.512;2023-08-20T11:31:34;10.40;;;1.60;;
60026;SDS011;45891;53.006;6.512;2023-08-20T11:34:02;9.10;;;1.50;;
60026;SDS011;45891;53.006;6.512;2023-08-20T11:36:29;9.77;;;1.92;;
60026;SDS011;45891;53.006;6.512;2023-08-20T11:38:55;8.38;;;2.13;;
60026;SDS011;45891;53.006;6.512;2023-08-20T11:41:22;25.38;;;15.57;;
60026;SDS011;45891;53.006;6.512;2023-08-20T11:43:50;13.25;;;3.70;;
60026;SDS011;45891;53.006;6.512;2023-08-20T11:46:21;9.38;;;2.00;;
60026;SDS011;45891;53.006;6.512;2023-08-20T11:48:58;9.93;;;1.90;;
60026;SDS011;45891;53.006;6.512;2023-08-20T11:54:10;10.68;;;2.40;;
60026;SDS011;45891;53.006;6.512;2023-08-20T11:56:42;8.48;;;1.63;;
60026;SDS011;45891;53.006;6.512;2023-08-20T11:59:10;8.52;;;1.48;;
60026;SDS011;45891;53.006;6.512;2023-08-20T12:01:37;9.60;;;1.80;;
60026;SDS011;45891;53.006;6.512;2023-08-20T12:04:04;10.15;;;2.63;;
60026;SDS011;45891;53.006;6.512;2023-08-20T12:06:31;10.40;;;2.08;;
60026;SDS011;45891;53.006;6.512;2023-08-20T12:08:57;10.30;;;1.67;;
60026;SDS011;45891;53.006;6.512;2023-08-20T12:11:27;8.00;;;1.60;;
60026;SDS011;45891;53.006;6.512;2023-08-20T12:13:54;9.25;;;1.85;;
60026;SDS011;45891;53.006;6.512;2023-08-20T12:16:21;8.32;;;1.63;;
60026;SDS011;45891;53.006;6.512;2023-08-20T12:18:48;8.68;;;1.80;;
60026;SDS011;45891;53.006;6.512;2023-08-20T12:21:15;8.00;;;1.50;;
60026;SDS011;45891;53.006;6.512;2023-08-20T12:23:41;8.43;;;1.50;;
60026;SDS011;45891;53.006;6.512;2023-08-20T12:26:07;10.30;;;2.00;;
60026;SDS011;45891;53.006;6.512;2023-08-20T12:28:34;10.07;;;1.50;;
60026;SDS011;45891;53.006;6.512;2023-08-20T12:31:00;8.15;;;1.35;;
60026;SDS011;45891;53.006;6.512;2023-08-20T12:33:26;7.15;;;1.40;;
60026;SDS011;45891;53.006;6.512;2023-08-20T12:35:54;8.35;;;1.70;;
60026;SDS011;45891;53.006;6.512;2023-08-20T12:38:21;8.90;;;1.70;;
60026;SDS011;45891;53.006;6.512;2023-08-20T12:40:47;8.30;;;1.63;;
60026;SDS011;45891;53.006;6.512;2023-08-20T12:43:13;8.73;;;1.58;;
60026;SDS011;45891;53.006;6.512;2023-08-20T12:45:39;8.82;;;1.73;;
60026;SDS011;45891;53.006;6.512;2023-08-20T12:48:05;8.93;;;1.60;;
60026;SDS011;45891;53.006;6.512;2023-08-20T12:50:33;9.40;;;1.70;;
60026;SDS011;45891;53.006;6.512;2023-08-20T12:52:59;10.65;;;1.77;;
60026;SDS011;45891;53.006;6.512;2023-08-20T12:55:25;9.45;;;1.73;;
60026;SDS011;45891;53.006;6.512;2023-08-20T12:57:55;9.35;;;1.52;;
60026;SDS011;45891;53.006;6.512;2023-08-20T13:00:23;10.20;;;1.65;;
60026;SDS011;45891;53.006;6.512;2023-08-20T13:05:22;9.60;;;1.60;;
60026;SDS011;45891;53.006;6.512;2023-08-20T13:07:49;8.20;;;1.60;;
60026;SDS011;45891;53.006;6.512;2023-08-20T13:10:16;8.65;;;1.77;;
60026;SDS011;45891;53.006;6.512;2023-08-20T13:12:47;10.27;;;2.00;;
60026;SDS011;45891;53.006;6.512;2023-08-20T13:15:17;8.10;;;1.60;;
60026;SDS011;45891;53.006;6.512;2023-08-20T13:17:47;9.80;;;1.75;;
60026;SDS011;45891;53.006;6.512;2023-08-20T13:20:15;8.02;;;1.50;;
60026;SDS011;45891;53.006;6.512;2023-08-20T13:22:49;8.35;;;1.60;;
60026;SDS011;45891;53.006;6.512;2023-08-20T13:25:16;8.00;;;1.50;;
60026;SDS011;45891;53.006;6.512;2023-08-20T13:27:42;6.95;;;1.23;;
60026;SDS011;45891;53.006;6.512;2023-08-20T13:30:09;6.80;;;1.30;;
60026;SDS011;45891;53.006;6.512;2023-08-20T13:32:36;7.90;;;1.40;;
60026;SDS011;45891;53.006;6.512;2023-08-20T13:35:03;7.18;;;1.20;;
60026;SDS011;45891;53.006;6.512;2023-08-20T13:37:30;7.15;;;1.35;;
60026;SDS011;45891;53.006;6.512;2023-08-20T13:39:57;7.82;;;1.30;;
60026;SDS011;45891;53.006;6.512;2023-08-20T13:42:23;7.13;;;1.20;;
60026;SDS011;45891;53.006;6.512;2023-08-20T13:44:50;6.97;;;1.30;;
60026;SDS011;45891;53.006;6.512;2023-08-20T13:47:16;9.70;;;1.70;;
60026;SDS011;45891;53.006;6.512;2023-08-20T13:49:42;6.50;;;1.40;;
60026;SDS011;45891;53.006;6.512;2023-08-20T13:52:09;8.25;;;1.20;;
60026;SDS011;45891;53.006;6.512;2023-08-20T13:54:36;5.80;;;1.40;;
60026;SDS011;45891;53.006;6.512;2023-08-20T13:57:02;5.63;;;1.00;;
60026;SDS011;45891;53.006;6.512;2023-08-20T13:59:29;6.65;;;1.30;;
60026;SDS011;45891;53.006;6.512;2023-08-20T14:01:56;7.43;;;1.30;;
60026;SDS011;45891;53.006;6.512;2023-08-20T14:04:22;6.85;;;1.20;;
60026;SDS011;45891;53.006;6.512;2023-08-20T14:06:48;6.90;;;1.20;;
60026;SDS011;45891;53.006;6.512;2023-08-20T14:09:14;8.57;;;1.25;;
60026;SDS011;45891;53.006;6.512;2023-08-20T14:11:42;7.55;;;1.33;;
60026;SDS011;45891;53.006;6.512;2023-08-20T14:14:08;6.15;;;1.20;;
60026;SDS011;45891;53.006;6.512;2023-08-20T14:16:34;6.10;;;1.20;;
60026;SDS011;45891;53.006;6.512;2023-08-20T14:19:01;8.02;;;1.17;;
60026;SDS011;45891;53.006;6.512;2023-08-20T14:21:27;4.90;;;1.05;;
60026;SDS011;45891;53.006;6.512;2023-08-20T14:23:53;6.28;;;1.30;;
60026;SDS011;45891;53.006;6.512;2023-08-20T14:26:19;7.07;;;1.58;;
60026;SDS011;45891;53.006;6.512;2023-08-20T14:28:45;8.32;;;1.80;;
60026;SDS011;45891;53.006;6.512;2023-08-20T14:31:12;6.82;;;1.10;;
60026;SDS011;45891;53.006;6.512;2023-08-20T14:33:38;7.25;;;1.08;;
60026;SDS011;45891;53.006;6.512;2023-08-20T14:36:04;5.45;;;1.00;;
60026;SDS011;45891;53.006;6.512;2023-08-20T14:38:30;4.70;;;0.90;;
60026;SDS011;45891;53.006;6.512;2023-08-20T14:41:00;5.72;;;1.20;;
60026;SDS011;45891;53.006;6.512;2023-08-20T14:43:27;6.65;;;1.20;;
60026;SDS011;45891;53.006;6.512;2023-08-20T14:45:54;5.72;;;1.20;;
60026;SDS011;45891;53.006;6.512;2023-08-20T14:48:21;6.18;;;1.20;;
60026;SDS011;45891;53.006;6.512;2023-08-20T14:50:48;7.78;;;1.10;;
60026;SDS011;45891;53.006;6.512;2023-08-20T14:53:14;7.00;;;1.13;;
60026;SDS011;45891;53.006;6.512;2023-08-20T14:55:40;7.55;;;1.40;;
60026;SDS011;45891;53.006;6.512;2023-08-20T14:58:06;8.98;;;1.20;;
60026;SDS011;45891;53.006;6.512;2023-08-20T15:00:33;7.95;;;1.50;;
60026;SDS011;45891;53.006;6.512;2023-08-20T15:03:00;10.63;;;1.70;;